Latest Coastal Weather Observations for Nullarbor

IDS60701

Issued at 6:41 am CDT Sunday 21 December 2014 (issued every 10 minutes, with the page automatically refreshed every 10 minutes)

About coastal observations | Map of coastal stations | Coastal observations for SA | Marine services | Other Formats
Station Details ID: 018106 Name: NULLARBOR Lat: -31.45 Lon: 130.90 Height: 64.0 m
Data from the previous 72 hours. | See also: Recent months at Nullarbor
Date/Time
CDT
Temp

°C
Wind Pressure Rain
since 9am
mm
Weather Cloud Vis
km
Sea
Height
m
Swell
Dir
 
Speed
knots
Gust
knots
hPa Trend Height
m
Period
s
Dir
21/06:30am 23.3 NE 11 13 1005.6 - 0.0 - Partly cloudy 10 - - - -
21/06:00am 21.3 ENE 9 14 1005.8 - 0.0 - Cloudy 10 - - - -
21/05:30am 20.1 E 10 12 1006.0 - 0.0 - Partly cloudy 10 - - - -
21/05:00am 20.6 ENE 7 8 1006.2 - 0.0 - - 10 - - - -
21/04:30am 20.5 S 4 6 1006.4 - 0.0 - - 10 - - - -
21/04:00am 19.9 E 5 7 1006.2 - 0.0 - - 10 - - - -
21/03:30am 19.4 SE 7 7 1006.3 - 0.0 - - 10 - - - -
21/03:00am 20.0 SSE 7 8 1006.6 - 0.0 - Mostly clear 10 - - - -
21/02:30am 20.7 ESE 8 10 1006.8 - 0.0 - - 10 - - - -
21/02:00am 20.9 SE 9 11 1006.9 - 0.0 - - 10 - - - -
21/01:30am 21.0 SE 8 9 1007.8 - 0.0 - - 10 - - - -
21/01:00am 20.8 SE 7 8 1007.9 - 0.0 - - 10 - - - -
21/12:30am 20.9 ESE 8 9 1008.0 - 0.0 - - 10 - - - -
21/12:00am 22.0 ESE 7 8 1008.3 - 0.0 - - 10 - - - -
 
Date/Time
CDT
Temp

°C
Wind Pressure Rain
since 9am
mm
Weather Cloud Vis
km
Sea
Height
m
Swell
Dir
 
Speed
knots
Gust
knots
hPa Trend Height
m
Period
s
Dir
20/11:30pm 23.1 ESE 11 13 1007.7 - 0.0 - - 10 - - - -
20/11:00pm 23.1 SE 12 16 1008.1 - 0.0 - - 10 - - - -
20/10:30pm 23.7 SE 13 18 1008.0 - 0.0 - - 10 - - - -
20/10:00pm 23.1 ESE 14 19 1007.9 - 0.0 - - 10 - - - -
20/09:30pm 22.6 ESE 15 20 1007.7 - 0.0 - - 10 - - - -
20/09:00pm 22.5 ESE 15 21 1007.7 - 0.0 - Partly cloudy 10 - - - -
20/08:30pm 23.9 SE 15 22 1007.9 - 0.0 - - 10 - - - -
20/08:00pm 25.0 SE 18 23 1008.2 - 0.0 - - 10 - - - -
20/07:30pm 26.1 SE 19 22 1008.1 - 0.0 - - 10 - - - -
20/07:00pm 26.6 SE 18 21 1008.1 - 0.0 - - 10 - - - -
20/06:30pm 27.0 SE 17 20 1008.2 - 0.0 - - 10 - - - -
20/06:00pm 28.5 SE 17 21 1008.5 - 0.0 - - 10 - - - -
20/05:30pm 29.6 SE 17 21 1008.9 - 0.0 - - 10 - - - -
20/05:00pm 30.8 SE 17 21 1009.2 - 0.0 - - 10 - - - -
20/04:30pm 31.5 SE 17 21 1009.6 - 0.0 - - 10 - - - -
20/04:00pm 31.1 SE 15 19 1010.2 - 0.0 - - 10 - - - -
20/03:30pm 31.6 SE 15 19 1010.8 - 0.0 - - 10 - - - -
20/03:00pm 31.1 SSE 15 18 1011.3 - 0.0 - - 10 - - - -
20/02:30pm 31.0 SSE 14 17 1011.9 - 0.0 - - 10 - - - -
20/02:00pm 31.0 SSE 13 18 1012.5 - 0.0 - - 10 - - - -
20/01:30pm 32.5 NE 6 9 1013.0 - 0.0 - - 10 - - - -
20/01:00pm 31.5 NNE 7 13 1013.9 - 0.0 - - 10 - - - -
20/12:30pm 29.8 NNE 7 10 1014.3 - 0.0 - - 10 - - - -
20/12:00pm 29.0 N 6 10 1014.9 - 0.0 - - 10 - - - -
20/11:30am 26.5 ENE 6 10 1015.1 - 0.0 - - 10 - - - -
20/11:00am 24.5 ESE 7 10 1015.4 - 0.0 - - 10 - - - -
20/10:30am 23.9 E 7 9 1015.8 - 0.0 - - 10 - - - -
20/10:00am 22.0 E 8 14 1015.8 - 0.0 - - 10 - - - -
20/09:30am 21.0 E 10 13 1016.1 - 0.0 - - 10 - - - -
20/09:00am 19.5 E 11 14 1016.3 - 0.0 - - 10 - - - -
20/08:30am 18.6 E 10 14 1016.5 - 0.0 - - 10 - - - -
20/08:23am 18.1 ESE 9 12 1016.4 - 0.0 - - 9 - - - -
20/08:00am 16.2 E 7 10 1016.4 - 0.0 - - 7 - - - -
20/07:58am 16.1 E 7 10 1016.4 - 0.0 - - 7 - - - -
20/07:30am 14.5 E 5 6 1016.4 - 0.0 - - 9 - - - -
20/07:00am 13.3 ESE 5 7 1016.0 - 0.0 - - 9 - - - -
20/06:30am 14.2 ESE 5 6 1016.1 - 0.0 - - 10 - - - -
20/06:00am 14.8 ESE 7 9 1015.9 - 0.0 - - 10 - - - -
20/05:30am 14.6 ESE 7 9 1015.9 - 0.0 - - 10 - - - -
20/05:00am 14.4 ESE 8 10 1016.0 - 0.0 - - 10 - - - -
20/04:30am 14.3 ESE 8 9 1016.2 - 0.0 - - 10 - - - -
20/04:00am 14.0 ESE 8 9 1016.5 - 0.0 - - 10 - - - -
20/03:30am 13.6 ESE 7 9 1016.8 - 0.0 - - 10 - - - -
20/03:00am 13.4 E 6 7 1017.3 - 0.0 - - 10 - - - -
20/02:30am 14.4 ESE 7 9 1017.5 - 0.0 - - 10 - - - -
20/02:00am 15.1 ESE 9 11 1017.4 - 0.0 - - 10 - - - -
20/01:30am 15.5 ESE 9 13 1017.4 - 0.0 - - 10 - - - -
20/01:00am 15.9 ESE 12 15 1017.6 - 0.0 - - 10 - - - -
20/12:30am 16.4 ESE 12 16 1018.0 - 0.0 - - 10 - - - -
20/12:00am 16.7 ESE 13 17 1017.9 - 0.0 - Partly cloudy 10 - - - -
 
Date/Time
CDT
Temp

°C
Wind Pressure Rain
since 9am
mm
Weather Cloud Vis
km
Sea
Height
m
Swell
Dir
 
Speed
knots
Gust
knots
hPa Trend Height
m
Period
s
Dir
19/11:30pm 16.9 ESE 14 18 1017.9 - 0.0 - - 10 - - - -
19/11:00pm 17.0 ESE 15 20 1017.9 - 0.0 - - 10 - - - -
19/10:30pm 17.1 SE 16 20 1017.9 - 0.0 - - 10 - - - -
19/10:00pm 17.2 SE 15 19 1017.9 - 0.0 - - 10 - - - -
19/09:30pm 17.4 SE 16 21 1018.0 - 0.0 - - 10 - - - -
19/09:00pm 17.7 SE 18 23 1017.9 - 0.0 - Mostly clear 10 - - - -
19/08:30pm 18.3 SE 20 25 1018.0 - 0.0 - - 10 - - - -
19/08:00pm 19.0 SE 22 26 1018.1 - 0.0 - - 10 - - - -
19/07:30pm 19.9 SE 21 26 1018.3 - 0.0 - - 10 - - - -
19/07:00pm 20.5 SE 21 26 1018.4 - 0.0 - - 10 - - - -
19/06:30pm 21.7 SE 21 25 1018.1 - 0.0 - - 10 - - - -
19/06:00pm 21.4 SE 20 27 1018.3 - 0.0 - - 10 - - - -
19/05:30pm 22.3 SSE 19 24 1018.4 - 0.0 - - 10 - - - -
19/05:00pm 22.3 SE 18 24 1018.8 - 0.0 - - 10 - - - -
19/04:30pm 22.7 SE 17 21 1019.2 - 0.0 - - 10 - - - -
19/04:00pm 22.4 SSE 17 22 1019.4 - 0.0 - - 10 - - - -
19/03:30pm 22.9 SE 16 22 1019.6 - 0.0 - - 10 - - - -
19/03:00pm 23.7 SSE 15 23 1019.8 - 0.0 - Mostly clear 10 - - - -
19/02:30pm 24.1 SE 12 16 1020.0 - 0.0 - - 10 - - - -
19/02:00pm 23.4 SE 11 17 1020.4 - 0.0 - - 10 - - - -
19/01:30pm 23.4 SSE 11 15 1020.7 - 0.0 - - 10 - - - -
19/01:00pm 23.3 SSE 9 14 1021.1 - 0.0 - - 10 - - - -
19/12:30pm 22.5 SE 11 16 1021.2 - 0.0 - - 10 - - - -
19/12:00pm 22.2 SE 9 15 1021.3 - 0.0 - - 10 - - - -
19/11:30am 21.8 ESE 9 16 1021.4 - 0.0 - - 10 - - - -
19/11:00am 21.4 E 8 13 1021.4 - 0.0 - Partly cloudy 10 - - - -
19/10:30am 21.2 ESE 10 15 1021.3 - 0.0 - Partly cloudy 10 - - - -
19/10:00am 20.5 SE 11 17 1021.2 - 0.0 - - 10 - - - -
19/09:30am 20.3 ESE 10 14 1021.2 - 0.0 - - 10 - - - -
19/09:00am 19.4 SE 9 14 1021.1 - 0.0 - - 10 - - - -
19/08:30am 18.5 E 7 8 1021.0 - 0.0 - - 10 - - - -
19/08:00am 17.2 E 5 6 1020.7 - 0.0 - - 10 - - - -
19/07:30am 14.2 E 5 6 1020.4 - 0.0 - - 10 - - - -
19/07:00am 12.0 E 7 7 1020.0 - 0.0 - - 10 - - - -
19/06:30am 11.1 E 7 8 1019.7 - 0.0 - - 10 - - - -
19/06:00am 10.7 ENE 7 7 1019.5 - 0.0 - - 10 - - - -
19/05:30am 11.5 E 7 7 1019.3 - 0.0 - Partly cloudy 10 - - - -
19/05:00am 11.8 E 7 7 1019.1 - 0.0 - - 10 - - - -
19/04:30am 12.8 E 7 7 1019.1 - 0.0 - Partly cloudy 10 - - - -
19/04:00am 12.8 E 6 7 1019.2 - 0.0 - - 10 - - - -
19/03:30am 13.8 ESE 7 8 1019.3 - 0.0 - - 10 - - - -
19/03:00am 13.6 SE 7 9 1019.3 - 0.0 - Mostly clear 10 - - - -
19/02:30am 14.0 SE 7 8 1019.4 - 0.0 - - 10 - - - -
19/02:00am 15.0 SE 7 8 1019.5 - 0.0 - - 10 - - - -
19/01:30am 16.0 SE 7 9 1019.7 - 0.0 - Partly cloudy 10 - - - -
19/01:00am 17.0 SE 10 13 1019.7 - 0.0 - Partly cloudy 10 - - - -
19/12:30am 15.7 SSE 7 7 1019.8 - 0.0 - Partly cloudy 10 - - - -
19/12:00am 15.9 SSE 7 9 1019.9 - 0.0 - - 10 - - - -
 
Date/Time
CDT
Temp

°C
Wind Pressure Rain
since 9am
mm
Weather Cloud Vis
km
Sea
Height
m
Swell
Dir
 
Speed
knots
Gust
knots
hPa Trend Height
m
Period
s
Dir
18/11:30pm 16.3 SSE 7 9 1019.8 - 0.0 - - 10 - - - -
18/11:00pm 17.1 SSE 9 10 1019.6 - 0.0 - Partly cloudy 10 - - - -
18/10:30pm 17.9 SSE 13 17 1019.4 - 0.0 - Partly cloudy 10 - - - -
18/10:00pm 18.2 SSE 8 11 1019.2 - 0.0 - Partly cloudy 10 - - - -
18/09:30pm 17.8 SSE 10 14 1019.0 - 0.0 - - 10 - - - -
18/09:00pm 18.5 SSE 13 16 1018.8 - 0.0 - Mostly clear 10 - - - -
18/08:30pm 18.7 SSE 15 18 1018.7 - 0.0 - - 10 - - - -
18/08:00pm 19.6 SSE 15 19 1018.5 - 0.0 - Partly cloudy 10 - - - -
18/07:30pm 20.0 S 14 19 1018.2 - 0.0 - Partly cloudy 10 - - - -
18/07:00pm 21.0 SSE 15 21 1017.7 - 0.0 - Partly cloudy 10 - - - -
18/06:30pm 20.9 SSE 15 21 1017.5 - 0.0 - Partly cloudy 10 - - - -
18/06:00pm 21.6 S 15 21 1017.2 - 0.0 - Mostly clear 10 - - - -
18/05:30pm 21.7 S 15 21 1017.2 - 0.0 - Partly cloudy 10 - - - -
18/05:00pm 21.9 S 15 21 1017.2 - 0.0 - - 10 - - - -
18/04:30pm 22.3 S 15 20 1017.3 - 0.0 - - 10 - - - -
18/04:00pm 22.5 S 14 22 1017.0 - 0.0 - Partly cloudy 10 - - - -
18/03:30pm 22.7 S 14 20 1016.8 - 0.0 - Partly cloudy 10 - - - -
18/03:00pm 22.8 S 13 18 1016.9 - 0.0 - Partly cloudy 10 - - - -
18/02:30pm 21.7 S 15 22 1016.8 - 0.0 - Partly cloudy 10 - - - -
18/02:00pm 21.6 S 16 22 1016.9 - 0.0 - Partly cloudy 10 - - - -
18/01:30pm 22.4 S 16 22 1016.8 - 0.0 - Partly cloudy 10 - - - -
18/01:00pm 22.5 S 15 20 1016.9 - 0.0 - - 10 - - - -
18/12:30pm 23.2 S 14 21 1016.8 - 0.0 - - 10 - - - -
18/12:00pm 22.8 S 14 19 1016.6 - 0.0 - - 10 - - - -
18/11:30am 21.9 S 13 18 1016.5 - 0.0 - - 10 - - - -
18/11:00am 21.6 SSE 14 18 1016.3 - 0.0 - Partly cloudy 10 - - - -
18/10:30am 21.2 S 13 19 1016.3 - 0.0 - Partly cloudy 10 - - - -
18/10:00am 20.5 S 15 18 1016.1 - 0.0 - Partly cloudy 10 - - - -
18/09:30am 20.9 S 13 17 1015.9 - 0.0 - Partly cloudy 10 - - - -
18/09:00am 19.8 S 13 16 1015.4 - 0.0 - Mostly clear 10 - - - -
18/08:30am 19.4 S 13 17 1015.0 - 0.0 - Partly cloudy 10 - - - -
18/08:00am 19.0 SSE 12 16 1014.6 - 0.0 - - 10 - - - -
18/07:30am 17.7 S 9 12 1014.3 - 0.0 - - 10 - - - -
18/07:00am 15.8 S 8 10 1013.9 - 0.0 - - 10 - - - -

Other Formats:

Comma delimited format used in spreadsheet applications
http://www.bom.gov.au/fwo/IDS60701/IDS60701.94651.axf

JavaScript Object Notation format (JSON) in row-major order
http://www.bom.gov.au/fwo/IDS60701/IDS60701.94651.json